createdAt,value
2016-09-07T00:00:28.759Z,0
2016-09-07T00:01:28.748Z,0
2016-09-07T00:02:28.737Z,0
2016-09-07T00:03:29.054Z,0
2016-09-07T00:04:28.726Z,0
2016-09-07T00:05:28.715Z,0
2016-09-07T00:06:28.699Z,0
2016-09-07T00:07:28.691Z,0
2016-09-07T00:08:28.684Z,0
2016-09-07T00:09:28.671Z,0
2016-09-07T00:10:28.668Z,0
2016-09-07T00:11:28.655Z,0
2016-09-07T00:12:28.647Z,0
2016-09-07T00:13:28.634Z,0
2016-09-07T00:14:28.633Z,0
2016-09-07T00:15:28.930Z,0
2016-09-07T00:16:28.612Z,0
2016-09-07T00:17:28.609Z,0
2016-09-07T00:18:28.914Z,0
2016-09-07T00:19:28.590Z,0
2016-09-07T00:20:28.577Z,0
2016-09-07T00:21:28.878Z,0
2016-09-07T00:22:28.559Z,0
2016-09-07T00:23:28.552Z,0
2016-09-07T00:24:28.538Z,0
2016-09-07T00:25:28.536Z,0
2016-09-07T00:26:28.831Z,0
2016-09-07T00:27:28.515Z,0
2016-09-07T00:28:28.513Z,0
2016-09-07T00:29:28.809Z,0
2016-09-07T00:30:28.509Z,0
2016-09-07T00:31:29.115Z,0
2016-09-07T00:32:28.473Z,0
2016-09-07T00:33:28.777Z,0
2016-09-07T00:34:28.464Z,0
2016-09-07T00:35:29.090Z,0
2016-09-07T00:36:28.436Z,0
2016-09-07T00:37:28.753Z,0
2016-09-07T00:38:28.757Z,0
2016-09-07T00:39:28.412Z,0
2016-09-07T00:40:28.402Z,0
2016-09-07T00:41:28.388Z,0
2016-09-07T00:42:28.401Z,0
2016-09-07T00:43:28.690Z,0
2016-09-07T00:44:28.694Z,0
2016-09-07T00:45:28.356Z,0
2016-09-07T00:46:28.346Z,0
2016-09-07T00:47:28.652Z,0
2016-09-07T00:48:28.326Z,0
2016-09-07T00:49:28.635Z,0
2016-09-07T00:50:28.312Z,0
2016-09-07T00:51:28.302Z,0
2016-09-07T00:52:28.285Z,0
2016-09-07T00:53:28.303Z,0
2016-09-07T00:54:28.895Z,0
2016-09-07T00:55:28.580Z,0
2016-09-07T00:56:28.272Z,0
2016-09-07T00:57:28.247Z,0
2016-09-07T00:58:28.555Z,0
2016-09-07T00:59:28.546Z,0
2016-09-07T01:00:28.225Z,0
2016-09-07T01:01:28.520Z,0
2016-09-07T01:02:28.510Z,0
2016-09-07T01:03:28.194Z,0
2016-09-07T01:04:28.199Z,0
2016-09-07T01:05:28.171Z,0
2016-09-07T01:06:28.158Z,0
2016-09-07T01:07:28.796Z,0
2016-09-07T01:08:28.474Z,0
2016-09-07T01:09:28.458Z,0
2016-09-07T01:10:28.135Z,0
2016-09-07T01:11:28.122Z,0
2016-09-07T01:12:28.104Z,0
2016-09-07T01:13:28.106Z,0
2016-09-07T01:14:28.713Z,0
2016-09-07T01:15:28.081Z,0
2016-09-07T01:16:28.080Z,0
2016-09-07T01:17:28.060Z,0
2016-09-07T01:18:28.369Z,0
2016-09-07T01:19:28.043Z,0
2016-09-07T01:20:28.040Z,0
2016-09-07T01:21:28.040Z,0
2016-09-07T01:22:28.338Z,0
2016-09-07T01:23:28.323Z,0
2016-09-07T01:24:28.626Z,0
2016-09-07T01:25:28.307Z,0
2016-09-07T01:26:27.987Z,0
2016-09-07T01:27:27.984Z,0
2016-09-07T01:28:27.980Z,0
2016-09-07T01:29:27.946Z,0
2016-09-07T01:30:27.944Z,0
2016-09-07T01:31:28.256Z,0
2016-09-07T01:32:27.930Z,0
2016-09-07T01:33:27.917Z,0
2016-09-07T01:34:27.903Z,0
2016-09-07T01:35:27.897Z,0
2016-09-07T01:36:27.891Z,0
2016-09-07T01:37:28.199Z,0
2016-09-07T01:38:27.875Z,0
2016-09-07T01:39:27.853Z,0
2016-09-07T01:40:27.854Z,0
2016-09-07T01:41:27.843Z,0
2016-09-07T01:42:27.833Z,0
2016-09-07T01:43:27.817Z,0
2016-09-07T01:44:27.811Z,0
2016-09-07T01:45:27.805Z,0
2016-09-07T01:46:27.792Z,0
2016-09-07T01:47:27.786Z,0
2016-09-07T01:48:28.088Z,0
2016-09-07T01:49:28.410Z,0
2016-09-07T01:50:27.753Z,0
2016-09-07T01:51:28.113Z,0
2016-09-07T01:52:28.067Z,0
2016-09-07T01:53:27.736Z,0
2016-09-07T01:54:28.037Z,0
2016-09-07T01:55:27.713Z,0
2016-09-07T01:56:27.705Z,0
2016-09-07T01:57:27.690Z,0
2016-09-07T01:58:27.684Z,0
2016-09-07T01:59:27.671Z,0
2016-09-07T02:00:27.662Z,0
2016-09-07T02:01:27.649Z,0
2016-09-07T02:02:27.960Z,0
2016-09-07T02:03:27.631Z,0
2016-09-07T02:04:27.941Z,0
2016-09-07T02:05:27.625Z,0
2016-09-07T02:06:27.642Z,0
2016-09-07T02:07:27.915Z,0
2016-09-07T02:08:27.599Z,0
2016-09-07T02:09:28.217Z,0
2016-09-07T02:10:27.579Z,0
2016-09-07T02:11:27.578Z,0
2016-09-07T02:12:27.866Z,0
2016-09-07T02:13:27.545Z,0
2016-09-07T02:14:27.531Z,0
2016-09-07T02:15:27.726Z,0
2016-09-07T02:16:27.509Z,0
2016-09-07T02:17:27.500Z,0
2016-09-07T02:18:27.495Z,0
2016-09-07T02:19:27.484Z,0
2016-09-07T02:20:27.476Z,0
2016-09-07T02:21:27.468Z,0
2016-09-07T02:22:27.770Z,0
2016-09-07T02:23:27.446Z,0
2016-09-07T02:24:28.072Z,0
2016-09-07T02:25:27.433Z,0
2016-09-07T02:26:27.433Z,0
2016-09-07T02:27:27.408Z,0
2016-09-07T02:28:27.400Z,0
2016-09-07T02:29:27.402Z,0
2016-09-07T02:30:27.382Z,0
2016-09-07T02:31:27.371Z,0
2016-09-07T02:32:27.365Z,0
2016-09-07T02:33:27.667Z,0
2016-09-07T02:34:27.658Z,0
2016-09-07T02:35:27.341Z,0
2016-09-07T02:36:27.637Z,0
2016-09-07T02:37:27.942Z,0
2016-09-07T02:38:27.627Z,0
2016-09-07T02:39:27.612Z,0
2016-09-07T02:40:27.287Z,0
2016-09-07T02:41:27.272Z,0
2016-09-07T02:42:27.272Z,0
2016-09-07T02:43:27.276Z,0
2016-09-07T02:44:27.558Z,0
2016-09-07T02:45:27.247Z,0
2016-09-07T02:46:27.228Z,0
2016-09-07T02:47:27.224Z,0
2016-09-07T02:48:27.841Z,0
2016-09-07T02:49:27.511Z,0
2016-09-07T02:50:27.505Z,0
2016-09-07T02:51:27.193Z,0
2016-09-07T02:52:27.171Z,0
2016-09-07T02:53:27.163Z,0
2016-09-07T02:54:27.463Z,0
2016-09-07T02:55:27.461Z,0
2016-09-07T02:56:27.450Z,0
2016-09-07T02:57:27.120Z,0
2016-09-07T02:58:27.112Z,0
2016-09-07T02:59:27.108Z,0
2016-09-07T03:00:27.408Z,0
2016-09-07T03:01:27.398Z,0
2016-09-07T03:02:27.070Z,0
2016-09-07T03:03:27.071Z,0
2016-09-07T03:04:27.374Z,0
2016-09-07T03:05:27.060Z,0
2016-09-07T03:06:27.036Z,0
2016-09-07T03:07:27.355Z,0
2016-09-07T03:08:27.400Z,0
2016-09-07T03:09:27.333Z,0
2016-09-07T03:10:27.638Z,0
2016-09-07T03:11:26.985Z,0
2016-09-07T03:12:27.288Z,0
2016-09-07T03:13:26.968Z,0
2016-09-07T03:14:27.277Z,0
2016-09-07T03:15:26.950Z,0
2016-09-07T03:16:26.932Z,0
2016-09-07T03:17:27.251Z,0
2016-09-07T03:18:26.911Z,0
2016-09-07T03:19:26.913Z,0
2016-09-07T03:20:26.900Z,0
2016-09-07T03:21:26.889Z,0
2016-09-07T03:22:27.191Z,0
2016-09-07T03:23:27.492Z,0
2016-09-07T03:24:26.882Z,0
2016-09-07T03:25:27.156Z,0
2016-09-07T03:26:26.840Z,0
2016-09-07T03:27:27.163Z,0
2016-09-07T03:28:26.823Z,0
2016-09-07T03:29:26.810Z,0
2016-09-07T03:30:26.806Z,0
2016-09-07T03:31:26.791Z,0
2016-09-07T03:32:26.775Z,0
2016-09-07T03:33:26.769Z,0
2016-09-07T03:34:27.070Z,0
2016-09-07T03:35:26.762Z,0
2016-09-07T03:36:26.754Z,0
2016-09-07T03:37:26.746Z,0
2016-09-07T03:38:26.779Z,0
2016-09-07T03:39:26.715Z,0
2016-09-07T03:40:26.705Z,0
2016-09-07T03:41:26.688Z,0
2016-09-07T03:42:26.677Z,0
2016-09-07T03:43:26.983Z,0
2016-09-07T03:44:26.663Z,0
2016-09-07T03:45:26.655Z,0
2016-09-07T03:46:26.635Z,0
2016-09-07T03:47:26.637Z,0
2016-09-07T03:48:26.636Z,0
2016-09-07T03:49:26.618Z,0
2016-09-07T03:50:26.913Z,0
2016-09-07T03:51:26.905Z,0
2016-09-07T03:52:26.579Z,0
2016-09-07T03:53:26.883Z,0
2016-09-07T03:54:26.556Z,0
2016-09-07T03:55:27.532Z,0
2016-09-07T03:56:26.559Z,0
2016-09-07T03:57:26.858Z,0
2016-09-07T03:58:26.517Z,0
2016-09-07T03:59:26.509Z,0
2016-09-07T04:00:26.546Z,0
2016-09-07T04:01:26.497Z,0
2016-09-07T04:02:26.495Z,0
2016-09-07T04:03:26.473Z,0
2016-09-07T04:04:26.466Z,0
2016-09-07T04:05:26.763Z,0
2016-09-07T04:06:26.768Z,0
2016-09-07T04:07:26.441Z,0
2016-09-07T04:08:26.439Z,0
2016-09-07T04:09:26.418Z,0
2016-09-07T04:10:26.714Z,0
2016-09-07T04:11:26.385Z,0
2016-09-07T04:12:26.387Z,0
2016-09-07T04:13:26.686Z,0
2016-09-07T04:14:26.360Z,0
2016-09-07T04:15:26.549Z,0
2016-09-07T04:16:26.653Z,0
2016-09-07T04:17:26.330Z,0
2016-09-07T04:18:26.630Z,0
2016-09-07T04:19:26.323Z,0
2016-09-07T04:20:26.612Z,0
2016-09-07T04:21:26.599Z,4
2016-09-07T04:22:26.275Z,4
2016-09-07T04:23:26.270Z,0
2016-09-07T04:24:26.259Z,4
2016-09-07T04:25:26.249Z,4
2016-09-07T04:26:26.554Z,4
2016-09-07T04:27:26.543Z,4
2016-09-07T04:28:26.262Z,4
2016-09-07T04:29:26.870Z,4
2016-09-07T04:30:27.155Z,8
2016-09-07T04:31:26.203Z,8
2016-09-07T04:32:26.496Z,8
2016-09-07T04:33:26.164Z,12
2016-09-07T04:34:26.782Z,16
2016-09-07T04:35:26.458Z,16
2016-09-07T04:36:26.145Z,20
2016-09-07T04:37:26.433Z,24
2016-09-07T04:38:26.136Z,24
2016-09-07T04:39:26.107Z,32
2016-09-07T04:40:26.403Z,36
2016-09-07T04:41:26.708Z,40
2016-09-07T04:42:26.394Z,48
2016-09-07T04:43:26.065Z,56
2016-09-07T04:44:26.369Z,64
2016-09-07T04:45:26.357Z,72
2016-09-07T04:46:26.347Z,80
2016-09-07T04:47:26.026Z,88
2016-09-07T04:48:26.015Z,100
2016-09-07T04:49:26.002Z,108
2016-09-07T04:50:25.993Z,120
2016-09-07T04:51:25.985Z,128
2016-09-07T04:52:25.974Z,140
2016-09-07T04:53:26.270Z,156
2016-09-07T04:54:26.277Z,168
2016-09-07T04:55:25.960Z,184
2016-09-07T04:56:26.572Z,200
2016-09-07T04:57:25.924Z,220
2016-09-07T04:58:26.250Z,240
2016-09-07T04:59:25.905Z,256
2016-09-07T05:00:26.579Z,280
2016-09-07T05:01:26.557Z,296
2016-09-07T05:02:26.502Z,316
2016-09-07T05:03:26.519Z,340
2016-09-07T05:04:26.478Z,360
2016-09-07T05:05:25.872Z,384
2016-09-07T05:06:25.821Z,400
2016-09-07T05:07:25.819Z,420
2016-09-07T05:08:25.817Z,440
2016-09-07T05:09:26.112Z,464
2016-09-07T05:10:25.786Z,484
2016-09-07T05:11:26.086Z,504
2016-09-07T05:12:25.764Z,520
2016-09-07T05:13:26.067Z,540
2016-09-07T05:14:26.378Z,560
2016-09-07T05:15:25.741Z,580
2016-09-07T05:16:25.742Z,600
2016-09-07T05:17:25.722Z,616
2016-09-07T05:18:26.020Z,636
2016-09-07T05:19:25.693Z,656
2016-09-07T05:20:25.683Z,676
2016-09-07T05:21:25.670Z,700
2016-09-07T05:22:25.670Z,724
2016-09-07T05:23:25.970Z,748
2016-09-07T05:24:25.963Z,764
2016-09-07T05:25:26.256Z,784
2016-09-07T05:26:25.935Z,808
2016-09-07T05:27:25.925Z,828
2016-09-07T05:28:25.909Z,848
2016-09-07T05:29:25.591Z,872
2016-09-07T05:30:25.574Z,900
2016-09-07T05:31:25.578Z,920
2016-09-07T05:32:25.871Z,948
2016-09-07T05:33:25.552Z,972
2016-09-07T05:34:25.865Z,988
2016-09-07T05:35:25.538Z,1004
2016-09-07T05:36:25.514Z,1024
2016-09-07T05:37:25.508Z,1044
2016-09-07T05:38:25.497Z,1064
2016-09-07T05:39:25.804Z,1080
2016-09-07T05:40:25.480Z,1100
2016-09-07T05:41:25.468Z,1112
2016-09-07T05:42:25.459Z,1124
2016-09-07T05:43:25.763Z,1132
2016-09-07T05:44:25.754Z,1144
2016-09-07T05:45:25.743Z,1156
2016-09-07T05:46:25.431Z,1172
2016-09-07T05:47:25.731Z,1192
2016-09-07T05:48:25.715Z,1208
2016-09-07T05:49:25.388Z,1224
2016-09-07T05:50:26.005Z,1244
2016-09-07T05:51:25.683Z,1268
2016-09-07T05:52:25.406Z,1288
2016-09-07T05:53:25.663Z,1304
2016-09-07T05:54:25.651Z,1324
2016-09-07T05:55:25.641Z,1340
2016-09-07T05:56:25.629Z,1356
2016-09-07T05:57:25.637Z,1368
2016-09-07T05:58:25.300Z,1384
2016-09-07T05:59:25.612Z,1396
2016-09-07T06:00:25.272Z,1396
2016-09-07T06:01:25.284Z,1404
2016-09-07T06:02:25.255Z,1412
2016-09-07T06:03:25.254Z,1416
2016-09-07T06:04:25.543Z,1432
2016-09-07T06:05:25.550Z,1460
2016-09-07T06:06:25.527Z,1476
2016-09-07T06:07:25.223Z,1492
2016-09-07T06:08:25.198Z,1512
2016-09-07T06:09:25.187Z,1528
2016-09-07T06:10:25.486Z,1540
2016-09-07T06:11:25.167Z,1552
2016-09-07T06:12:25.467Z,1564
2016-09-07T06:13:25.774Z,1580
2016-09-07T06:14:25.135Z,1592
2016-09-07T06:15:25.342Z,1604
2016-09-07T06:16:25.115Z,1616
2016-09-07T06:17:25.423Z,1620
2016-09-07T06:18:25.093Z,1624
2016-09-07T06:19:25.410Z,1624
2016-09-07T06:20:25.076Z,1628
2016-09-07T06:21:25.069Z,1644
2016-09-07T06:22:25.064Z,1656
2016-09-07T06:23:25.052Z,1668
2016-09-07T06:24:25.360Z,1688
2016-09-07T06:25:25.032Z,1724
2016-09-07T06:26:25.032Z,1744
2016-09-07T06:27:25.016Z,1748
2016-09-07T06:28:25.014Z,1772
2016-09-07T06:29:25.301Z,1788
2016-09-07T06:30:25.294Z,1796
2016-09-07T06:31:25.283Z,1808
2016-09-07T06:32:24.967Z,1816
2016-09-07T06:33:24.966Z,1828
2016-09-07T06:34:25.573Z,1840
2016-09-07T06:35:25.249Z,1848
2016-09-07T06:36:25.235Z,1856
2016-09-07T06:37:25.223Z,1864
2016-09-07T06:38:24.916Z,1880
2016-09-07T06:39:24.899Z,1884
2016-09-07T06:40:25.214Z,1892
2016-09-07T06:41:24.881Z,1904
2016-09-07T06:42:24.872Z,1916
2016-09-07T06:43:24.870Z,1932
2016-09-07T06:44:25.158Z,1948
2016-09-07T06:45:25.467Z,1968
2016-09-07T06:46:25.145Z,1992
2016-09-07T06:47:25.142Z,2016
2016-09-07T06:48:24.813Z,2040
2016-09-07T06:49:24.807Z,2060
2016-09-07T06:50:25.107Z,2076
2016-09-07T06:51:24.785Z,2092
2016-09-07T06:52:24.775Z,2116
2016-09-07T06:53:24.768Z,2136
2016-09-07T06:54:24.755Z,2148
2016-09-07T06:55:25.069Z,2164
2016-09-07T06:56:24.740Z,2176
2016-09-07T06:57:25.045Z,2188
2016-09-07T06:58:24.727Z,2200
2016-09-07T06:59:25.035Z,2216
2016-09-07T07:00:24.704Z,2228
2016-09-07T07:01:25.027Z,2240
2016-09-07T07:02:25.634Z,2260
2016-09-07T07:03:24.994Z,2280
2016-09-07T07:04:24.985Z,2292
2016-09-07T07:05:24.655Z,2304
2016-09-07T07:06:24.655Z,2324
2016-09-07T07:07:24.952Z,2348
2016-09-07T07:08:24.641Z,2360
2016-09-07T07:09:24.626Z,2376
2016-09-07T07:10:24.628Z,2400
2016-09-07T07:11:24.610Z,2408
2016-09-07T07:12:24.596Z,2408
2016-09-07T07:13:24.901Z,2400
2016-09-07T07:14:24.897Z,2388
2016-09-07T07:15:24.584Z,2376
2016-09-07T07:16:24.884Z,2360
2016-09-07T07:17:24.891Z,2348
2016-09-07T07:18:24.545Z,2360
2016-09-07T07:19:24.853Z,2360
2016-09-07T07:20:24.529Z,2348
2016-09-07T07:21:24.520Z,2340
2016-09-07T07:22:24.515Z,2332
2016-09-07T07:23:25.129Z,2324
2016-09-07T07:24:24.816Z,2328
2016-09-07T07:25:24.485Z,2324
2016-09-07T07:26:24.796Z,2312
2016-09-07T07:27:24.474Z,2304
2016-09-07T07:28:25.092Z,2288
2016-09-07T07:29:24.458Z,2248
2016-09-07T07:30:24.457Z,2228
2016-09-07T07:31:24.750Z,2216
2016-09-07T07:32:24.741Z,2232
2016-09-07T07:33:24.733Z,2220
2016-09-07T07:34:24.725Z,2228
2016-09-07T07:35:24.711Z,2272
2016-09-07T07:36:24.403Z,2300
2016-09-07T07:37:24.697Z,2304
2016-09-07T07:38:24.392Z,2324
2016-09-07T07:39:24.386Z,2368
2016-09-07T07:40:24.681Z,2408
2016-09-07T07:41:24.682Z,2460
2016-09-07T07:42:24.657Z,2520
2016-09-07T07:43:24.342Z,2548
2016-09-07T07:44:24.962Z,2568
2016-09-07T07:45:24.324Z,2592
2016-09-07T07:46:24.947Z,2608
2016-09-07T07:47:24.613Z,2624
2016-09-07T07:48:24.296Z,2640
2016-09-07T07:49:24.601Z,2660
2016-09-07T07:50:24.293Z,2688
2016-09-07T07:51:24.276Z,2720
2016-09-07T07:52:24.580Z,2772
2016-09-07T07:53:24.255Z,2828
2016-09-07T07:54:24.250Z,2872
2016-09-07T07:55:24.552Z,2900
2016-09-07T07:56:24.551Z,2928
2016-09-07T07:57:24.224Z,2960
2016-09-07T07:58:24.217Z,2984
2016-09-07T07:59:24.527Z,2996
2016-09-07T08:00:24.203Z,3016
2016-09-07T08:01:24.211Z,3024
2016-09-07T08:02:24.184Z,3104
2016-09-07T08:03:24.176Z,3180
2016-09-07T08:04:24.174Z,3084
2016-09-07T08:05:24.170Z,3044
2016-09-07T08:06:24.472Z,3040
2016-09-07T08:07:24.149Z,3068
2016-09-07T08:08:24.768Z,3120
2016-09-07T08:09:24.129Z,3168
2016-09-07T08:10:24.128Z,3232
2016-09-07T08:11:24.433Z,6768
2016-09-07T08:12:24.424Z,7296
2016-09-07T08:13:24.116Z,5824
2016-09-07T08:14:24.406Z,6784
2016-09-07T08:15:24.292Z,4116
2016-09-07T08:16:24.709Z,5724
2016-09-07T08:17:24.699Z,7396
2016-09-07T08:18:24.384Z,4480
2016-09-07T08:19:24.068Z,4348
2016-09-07T08:20:24.376Z,7124
2016-09-07T08:21:24.044Z,5576
2016-09-07T08:22:24.038Z,4084
2016-09-07T08:23:24.029Z,3452
2016-09-07T08:24:24.018Z,3452
2016-09-07T08:25:24.019Z,4440
2016-09-07T08:26:24.011Z,3492
2016-09-07T08:27:24.007Z,3704
2016-09-07T08:28:23.994Z,3340
2016-09-07T08:29:24.313Z,3196
2016-09-07T08:30:24.302Z,3180
2016-09-07T08:31:24.286Z,3128
2016-09-07T08:32:23.974Z,3112
2016-09-07T08:33:24.278Z,3156
2016-09-07T08:34:24.268Z,3196
2016-09-07T08:35:23.952Z,3216
2016-09-07T08:36:23.946Z,3140
2016-09-07T08:37:23.936Z,3140
2016-09-07T08:38:23.933Z,3168
2016-09-07T08:39:24.551Z,3156
2016-09-07T08:40:23.920Z,3156
2016-09-07T08:41:23.910Z,3168
2016-09-07T08:42:23.904Z,3588
2016-09-07T08:43:23.901Z,4576
2016-09-07T08:44:23.891Z,6880
2016-09-07T08:45:23.895Z,5768
2016-09-07T08:46:23.884Z,4816
2016-09-07T08:47:24.188Z,6316
2016-09-07T08:48:23.865Z,5728
2016-09-07T08:49:23.863Z,8208
2016-09-07T08:50:23.854Z,6424
2016-09-07T08:51:23.854Z,4864
2016-09-07T08:52:24.472Z,6592
2016-09-07T08:53:23.839Z,5048
2016-09-07T08:54:23.839Z,3644
2016-09-07T08:55:24.152Z,3504
2016-09-07T08:56:23.836Z,3524
2016-09-07T08:57:23.815Z,3560
2016-09-07T08:58:24.117Z,3748
2016-09-07T08:59:24.125Z,4192
2016-09-07T09:00:24.110Z,3988
2016-09-07T09:01:24.096Z,3884
2016-09-07T09:02:24.096Z,3780
2016-09-07T09:03:23.776Z,3760
2016-09-07T09:04:24.084Z,3788
2016-09-07T09:05:24.074Z,3984
2016-09-07T09:06:23.763Z,3960
2016-09-07T09:07:24.378Z,3832
2016-09-07T09:08:23.766Z,4052
2016-09-07T09:09:23.740Z,4048
2016-09-07T09:10:24.360Z,4220
2016-09-07T09:11:24.361Z,4972
2016-09-07T09:12:24.042Z,4696
2016-09-07T09:13:23.723Z,5116
2016-09-07T09:14:24.021Z,4648
2016-09-07T09:15:24.329Z,4364
2016-09-07T09:16:24.018Z,3884
2016-09-07T09:17:24.000Z,3596
2016-09-07T09:18:24.311Z,3556
2016-09-07T09:19:23.986Z,3580
2016-09-07T09:20:23.675Z,3656
2016-09-07T09:21:23.668Z,3696
2016-09-07T09:22:24.003Z,3780
2016-09-07T09:23:23.977Z,3784
2016-09-07T09:24:23.650Z,3788
2016-09-07T09:25:23.644Z,3880
2016-09-07T09:26:24.267Z,3992
2016-09-07T09:27:23.944Z,3968
2016-09-07T09:28:23.933Z,4028
2016-09-07T09:29:23.931Z,4368
2016-09-07T09:30:24.248Z,4744
2016-09-07T09:31:23.612Z,4176
2016-09-07T09:32:23.599Z,4240
2016-09-07T09:33:23.909Z,4256
2016-09-07T09:34:23.589Z,4308
2016-09-07T09:35:24.209Z,4420
2016-09-07T09:36:23.586Z,4432
2016-09-07T09:37:23.573Z,4464
2016-09-07T09:38:23.875Z,4476
2016-09-07T09:39:23.560Z,4552
2016-09-07T09:40:23.551Z,4692
2016-09-07T09:41:23.877Z,4616
2016-09-07T09:42:23.846Z,4612
2016-09-07T09:43:23.845Z,4632
2016-09-07T09:44:23.536Z,4636
2016-09-07T09:45:23.524Z,4860
2016-09-07T09:46:23.518Z,4912
2016-09-07T09:47:24.141Z,4740
2016-09-07T09:48:23.501Z,4752
2016-09-07T09:49:23.497Z,4812
2016-09-07T09:50:23.810Z,4864
2016-09-07T09:51:23.801Z,4876
2016-09-07T09:52:24.157Z,4876
2016-09-07T09:53:23.798Z,4836
2016-09-07T09:54:24.102Z,4796
2016-09-07T09:55:23.775Z,4716
2016-09-07T09:56:23.465Z,5144
2016-09-07T09:57:23.454Z,5464
2016-09-07T09:58:23.761Z,8948
2016-09-07T09:59:23.446Z,9684
2016-09-07T10:00:23.750Z,5308
2016-09-07T10:01:23.746Z,4712
2016-09-07T10:02:23.745Z,4628
2016-09-07T10:03:23.434Z,4604
2016-09-07T10:04:23.412Z,4940
2016-09-07T10:05:23.409Z,5380
2016-09-07T10:06:23.407Z,4656
2016-09-07T10:07:23.394Z,4564
2016-09-07T10:08:23.702Z,4352
2016-09-07T10:09:23.703Z,4796
2016-09-07T10:10:23.694Z,7108
2016-09-07T10:11:23.373Z,14856
2016-09-07T10:12:23.370Z,9664
2016-09-07T10:13:23.366Z,9216
2016-09-07T10:14:23.681Z,5240
2016-09-07T10:15:23.559Z,9696
2016-09-07T10:16:23.349Z,11272
2016-09-07T10:17:23.344Z,7804
2016-09-07T10:18:23.332Z,15740
2016-09-07T10:19:23.956Z,17696
2016-09-07T10:20:23.323Z,8604
2016-09-07T10:21:23.536Z,8244
2016-09-07T10:22:23.632Z,5280
2016-09-07T10:23:23.627Z,4508
2016-09-07T10:24:23.642Z,4408
2016-09-07T10:25:23.630Z,4392
2016-09-07T10:26:23.305Z,4392
2016-09-07T10:27:23.605Z,4416
2016-09-07T10:28:23.615Z,4508
2016-09-07T10:29:23.289Z,4732
2016-09-07T10:30:23.283Z,5332
2016-09-07T10:31:23.594Z,5012
2016-09-07T10:32:23.267Z,5764
2016-09-07T10:33:24.045Z,9160
2016-09-07T10:34:23.259Z,8116
2016-09-07T10:35:23.268Z,5528
2016-09-07T10:36:23.246Z,4604
2016-09-07T10:37:23.553Z,4796
2016-09-07T10:38:23.550Z,10708
2016-09-07T10:39:23.506Z,13388
2016-09-07T10:40:23.225Z,26816
2016-09-07T10:41:23.221Z,44448
2016-09-07T10:42:23.546Z,43936
2016-09-07T10:43:24.148Z,19680
2016-09-07T10:44:23.205Z,13132
2016-09-07T10:45:23.518Z,12116
2016-09-07T10:46:23.818Z,14812
2016-09-07T10:47:23.818Z,8700
2016-09-07T10:48:23.181Z,5328
2016-09-07T10:49:23.181Z,6532
2016-09-07T10:50:23.174Z,6016
2016-09-07T10:51:23.173Z,5316
2016-09-07T10:52:23.176Z,6444
2016-09-07T10:53:23.164Z,14048
2016-09-07T10:54:23.466Z,15356
2016-09-07T10:55:23.163Z,6256
2016-09-07T10:56:23.460Z,6648
2016-09-07T10:57:23.142Z,7004
2016-09-07T10:58:23.137Z,6072
2016-09-07T10:59:23.442Z,5904
2016-09-07T11:00:23.439Z,6136
2016-09-07T11:01:23.442Z,6000
2016-09-07T11:02:23.122Z,5700
2016-09-07T11:03:23.424Z,14296
2016-09-07T11:04:23.420Z,25504
2016-09-07T11:05:23.096Z,28512
2016-09-07T11:06:23.420Z,41344
2016-09-07T11:07:23.092Z,22688
2016-09-07T11:08:23.408Z,21472
2016-09-07T11:09:23.401Z,37216
2016-09-07T11:10:23.393Z,51456
2016-09-07T11:11:23.074Z,60672
2016-09-07T11:12:23.386Z,57120
2016-09-07T11:13:23.071Z,50976
2016-09-07T11:14:23.070Z,34784
2016-09-07T11:15:23.387Z,13756
2016-09-07T11:16:23.063Z,45888
2016-09-07T11:17:23.693Z,54912
2016-09-07T11:18:23.374Z,70624
2016-09-07T11:19:23.064Z,78944
2016-09-07T11:20:23.063Z,78144
2016-09-07T11:21:23.375Z,79392
2016-09-07T11:22:23.066Z,78560
2016-09-07T11:23:23.064Z,78208
2016-09-07T11:24:23.375Z,78336
2016-09-07T11:25:23.061Z,78816
2016-09-07T11:26:23.382Z,80576
2016-09-07T11:27:23.377Z,81376
2016-09-07T11:28:23.382Z,82816
2016-09-07T11:29:23.072Z,83328
2016-09-07T11:30:23.087Z,83872
2016-09-07T11:31:23.386Z,80288
2016-09-07T11:32:23.076Z,75136
2016-09-07T11:33:23.399Z,70976
2016-09-07T11:34:23.083Z,69088
2016-09-07T11:35:23.402Z,70272
2016-09-07T11:36:23.418Z,69760
2016-09-07T11:37:23.092Z,69216
2016-09-07T11:38:23.094Z,70624
2016-09-07T11:39:23.098Z,71936
2016-09-07T11:40:23.415Z,75200
2016-09-07T11:41:23.105Z,78112
2016-09-07T11:42:23.109Z,79328
2016-09-07T11:43:23.129Z,81440
2016-09-07T11:44:23.441Z,82304
2016-09-07T11:45:23.130Z,83136
2016-09-07T11:46:23.451Z,84736
2016-09-07T11:47:23.454Z,86400
2016-09-07T11:48:23.452Z,88544
2016-09-07T11:49:23.773Z,88448
2016-09-07T11:50:23.766Z,87008
2016-09-07T11:51:23.151Z,87872
2016-09-07T11:52:24.096Z,86048
2016-09-07T11:53:23.472Z,85024
2016-09-07T11:54:23.476Z,84160
2016-09-07T11:55:23.168Z,83104
2016-09-07T11:56:23.487Z,82112
2016-09-07T11:57:23.176Z,79040
2016-09-07T11:58:23.189Z,75776
2016-09-07T11:59:23.192Z,72832
2016-09-07T12:00:23.196Z,70912
2016-09-07T12:01:23.515Z,69216
2016-09-07T12:02:23.561Z,68288
2016-09-07T12:03:23.214Z,68960
2016-09-07T12:04:23.528Z,69472
2016-09-07T12:05:23.535Z,70944
2016-09-07T12:06:23.234Z,72864
2016-09-07T12:07:23.546Z,76288
2016-09-07T12:08:23.239Z,80032
2016-09-07T12:09:23.565Z,84032
2016-09-07T12:10:23.254Z,87040
2016-09-07T12:11:23.254Z,89792
2016-09-07T12:12:23.543Z,91360
2016-09-07T12:13:23.589Z,92992
2016-09-07T12:14:23.608Z,93856
2016-09-07T12:15:23.813Z,95424
2016-09-07T12:16:23.603Z,96448
2016-09-07T12:17:23.610Z,96928
2016-09-07T12:18:23.619Z,97248
2016-09-07T12:19:23.311Z,97632
2016-09-07T12:20:23.630Z,99232
2016-09-07T12:21:23.953Z,99168
2016-09-07T12:22:23.666Z,97696
2016-09-07T12:23:23.341Z,93152
2016-09-07T12:24:23.656Z,87776
2016-09-07T12:25:23.357Z,82688
2016-09-07T12:26:23.361Z,79712
2016-09-07T12:27:23.364Z,77824
2016-09-07T12:28:23.371Z,79168
2016-09-07T12:29:23.371Z,80960
2016-09-07T12:30:23.401Z,84416
2016-09-07T12:31:23.946Z,86880
2016-09-07T12:32:23.732Z,89792
2016-09-07T12:33:24.048Z,90912
2016-09-07T12:34:23.735Z,89440
2016-09-07T12:35:23.736Z,86592
2016-09-07T12:36:23.743Z,82848
2016-09-07T12:37:23.428Z,78688
2016-09-07T12:38:23.446Z,75136
2016-09-07T12:39:23.452Z,72384
2016-09-07T12:40:23.467Z,72256
2016-09-07T12:41:23.775Z,73216
2016-09-07T12:42:23.471Z,75040
2016-09-07T12:43:23.790Z,76192
2016-09-07T12:44:23.970Z,77952
2016-09-07T12:45:24.151Z,78528
2016-09-07T12:46:23.817Z,80448
2016-09-07T12:47:23.517Z,83424
2016-09-07T12:48:24.285Z,87840
2016-09-07T12:49:24.175Z,90176
2016-09-07T12:50:23.866Z,91072
2016-09-07T12:51:24.173Z,90208
2016-09-07T12:52:23.857Z,88256
2016-09-07T12:53:24.183Z,87232
2016-09-07T12:54:23.553Z,87328
2016-09-07T12:55:23.912Z,89312
2016-09-07T12:56:24.198Z,93888
2016-09-07T12:57:23.587Z,98048
2016-09-07T12:58:23.904Z,99200
2016-09-07T12:59:24.250Z,96576
2016-09-07T13:00:23.923Z,92288
2016-09-07T13:01:24.269Z,87808
2016-09-07T13:02:23.621Z,84000
2016-09-07T13:03:23.618Z,84864
2016-09-07T13:04:23.635Z,88000
2016-09-07T13:05:24.261Z,90720
2016-09-07T13:06:23.962Z,93472
2016-09-07T13:07:23.966Z,94784
2016-09-07T13:08:24.304Z,90624
2016-09-07T13:09:23.672Z,87104
2016-09-07T13:10:23.990Z,85024
2016-09-07T13:11:23.996Z,84064
2016-09-07T13:12:24.019Z,84576
2016-09-07T13:13:23.696Z,86816
2016-09-07T13:14:23.701Z,87200
2016-09-07T13:15:24.738Z,86816
2016-09-07T13:16:24.045Z,84000
2016-09-07T13:17:23.736Z,80064
2016-09-07T13:18:23.732Z,74656
2016-09-07T13:19:23.741Z,71424
2016-09-07T13:20:24.062Z,67328
2016-09-07T13:21:24.072Z,65536
2016-09-07T13:22:24.076Z,66112
2016-09-07T13:23:23.771Z,67040
2016-09-07T13:24:23.787Z,69760
2016-09-07T13:25:24.095Z,73088
2016-09-07T13:26:23.791Z,72800
2016-09-07T13:27:24.112Z,71360
2016-09-07T13:28:23.813Z,68000
2016-09-07T13:29:23.812Z,63680
2016-09-07T13:30:23.819Z,63200
2016-09-07T13:31:24.161Z,63232
2016-09-07T13:32:23.834Z,65824
2016-09-07T13:33:23.837Z,69632
2016-09-07T13:34:24.160Z,70496
2016-09-07T13:35:24.168Z,69344
2016-09-07T13:36:24.178Z,65824
2016-09-07T13:37:23.869Z,61600
2016-09-07T13:38:23.879Z,58944
2016-09-07T13:39:23.886Z,57600
2016-09-07T13:40:23.896Z,59328
2016-09-07T13:41:24.210Z,63104
2016-09-07T13:42:24.222Z,65920